createdAt,value
2023-06-17T01:40:57.794Z,11.10
2023-06-17T01:43:27.953Z,11.80
2023-06-17T01:45:58.723Z,13.10
2023-06-17T01:48:28.874Z,12.90
2023-06-17T01:51:07.452Z,12.60
2023-06-17T01:53:34.493Z,11.80
2023-06-17T01:56:21.472Z,15.10
2023-06-17T01:58:57.295Z,13.20
2023-06-17T02:01:25.284Z,15.50
2023-06-17T02:03:53.038Z,11.00
2023-06-17T02:06:20.066Z,13.70
2023-06-17T02:08:49.331Z,14.10
2023-06-17T02:11:16.283Z,11.90
2023-06-17T02:14:03.480Z,11.80
2023-06-17T02:16:39.786Z,11.70
2023-06-17T02:19:07.051Z,17.70
2023-06-17T02:21:34.542Z,13.40
2023-06-17T02:24:25.416Z,12.00
2023-06-17T02:26:52.209Z,12.50
2023-06-17T02:29:25.463Z,13.20
2023-06-17T02:31:53.132Z,14.20
2023-06-17T02:34:22.018Z,14.80
2023-06-17T02:36:58.715Z,14.50
2023-06-17T02:39:57.705Z,13.00
2023-06-17T02:42:25.000Z,13.80
2023-06-17T02:44:52.200Z,13.60
2023-06-17T02:47:19.111Z,14.50
2023-06-17T02:49:46.666Z,16.50
2023-06-17T02:52:13.760Z,18.90
2023-06-17T02:54:43.235Z,19.10
2023-06-17T02:57:13.744Z,17.80
2023-06-17T02:59:41.305Z,16.40
2023-06-17T03:02:08.431Z,16.90
2023-06-17T03:04:36.561Z,17.30
2023-06-17T03:07:06.919Z,16.80
2023-06-17T03:09:34.199Z,16.00
2023-06-17T03:12:04.315Z,15.90
2023-06-17T03:14:31.805Z,16.40
2023-06-17T03:17:00.138Z,16.50
2023-06-17T03:19:27.664Z,17.30
2023-06-17T03:21:56.696Z,19.50
2023-06-17T03:24:25.832Z,19.50
2023-06-17T03:26:54.154Z,20.60
2023-06-17T03:29:21.480Z,20.30
2023-06-17T03:31:49.600Z,17.60
2023-06-17T03:34:16.270Z,20.90
2023-06-17T03:36:47.788Z,22.80
2023-06-17T03:39:14.836Z,18.00
2023-06-17T03:41:42.259Z,18.80
2023-06-17T03:44:09.353Z,19.20
2023-06-17T03:46:36.279Z,25.10
2023-06-17T03:49:03.345Z,21.90
2023-06-17T03:51:30.133Z,19.40
2023-06-17T03:53:57.521Z,18.70
2023-06-17T03:56:27.276Z,20.80
2023-06-17T03:58:54.538Z,21.10
2023-06-17T04:01:21.848Z,19.50
2023-06-17T04:03:49.639Z,21.20
2023-06-17T04:06:17.781Z,18.70
2023-06-17T04:08:47.333Z,18.00
2023-06-17T04:11:15.624Z,17.40
2023-06-17T04:13:42.396Z,20.30
2023-06-17T04:16:09.165Z,16.80
2023-06-17T04:18:35.715Z,17.20
2023-06-17T04:21:02.580Z,17.90
2023-06-17T04:23:31.073Z,18.20
2023-06-17T04:25:58.108Z,16.40
2023-06-17T04:28:24.849Z,17.40
2023-06-17T04:30:53.447Z,23.60
2023-06-17T04:33:20.348Z,16.40
2023-06-17T04:35:47.716Z,16.90
2023-06-17T04:38:17.013Z,19.10
2023-06-17T04:40:46.066Z,20.00
2023-06-17T04:43:13.403Z,17.20
2023-06-17T04:45:40.845Z,15.90
2023-06-17T04:48:07.699Z,17.00
2023-06-17T04:50:35.997Z,15.70
2023-06-17T04:53:05.607Z,16.60
2023-06-17T04:55:35.933Z,17.00
2023-06-17T04:58:05.825Z,16.70
2023-06-17T05:00:39.232Z,17.00
2023-06-17T05:03:06.761Z,17.40
2023-06-17T05:05:33.932Z,17.00
2023-06-17T05:08:03.194Z,17.70
2023-06-17T05:10:33.074Z,18.60
2023-06-17T05:13:01.316Z,17.60
2023-06-17T05:15:31.627Z,16.90
2023-06-17T05:17:58.612Z,18.00
2023-06-17T05:20:26.906Z,20.30
2023-06-17T05:22:54.306Z,16.90
2023-06-17T05:25:21.070Z,17.10
2023-06-17T05:27:51.652Z,19.10
2023-06-17T05:30:23.868Z,18.20
2023-06-17T05:32:52.569Z,20.40
2023-06-17T05:35:20.182Z,18.30
2023-06-17T05:37:47.713Z,17.70
2023-06-17T05:40:17.558Z,17.50
2023-06-17T05:42:44.535Z,17.00
2023-06-17T05:45:12.311Z,17.70
2023-06-17T05:47:39.683Z,16.90
2023-06-17T05:50:09.010Z,16.70
2023-06-17T05:52:37.791Z,19.90
2023-06-17T05:55:06.140Z,21.20
2023-06-17T05:57:33.215Z,20.70
2023-06-17T06:00:03.619Z,17.20
2023-06-17T06:02:40.053Z,18.30
2023-06-17T06:05:08.579Z,17.10
2023-06-17T06:07:35.256Z,21.00
2023-06-17T06:10:05.855Z,16.00
2023-06-17T06:12:36.111Z,20.80
2023-06-17T06:15:07.796Z,17.60
2023-06-17T06:17:39.149Z,19.90
2023-06-17T06:20:08.775Z,18.00
2023-06-17T06:22:35.389Z,16.10
2023-06-17T06:25:02.914Z,15.40
2023-06-17T06:27:33.011Z,18.10
2023-06-17T06:30:10.889Z,18.60
2023-06-17T06:32:42.456Z,17.70
2023-06-17T06:35:11.929Z,15.80
2023-06-17T06:37:38.661Z,16.80
2023-06-17T06:40:06.554Z,17.30
2023-06-17T06:42:40.245Z,15.80
2023-06-17T06:45:24.371Z,15.90
2023-06-17T06:47:55.826Z,16.70
2023-06-17T06:50:25.519Z,16.70
2023-06-17T06:52:59.109Z,20.30
2023-06-17T06:55:26.924Z,14.90
2023-06-17T06:57:54.244Z,16.50
2023-06-17T07:00:24.636Z,15.20
2023-06-17T07:02:51.195Z,16.30
2023-06-17T07:05:23.401Z,15.80
2023-06-17T07:07:56.265Z,18.90
2023-06-17T07:10:25.615Z,16.60
2023-06-17T07:12:57.031Z,14.40
2023-06-17T07:15:34.437Z,14.70
2023-06-17T07:18:09.149Z,18.70
2023-06-17T07:20:42.212Z,20.20
2023-06-17T07:23:09.987Z,15.90
2023-06-17T07:25:39.309Z,15.80
2023-06-17T07:28:07.728Z,16.00
2023-06-17T07:30:34.984Z,14.30
2023-06-17T07:33:01.961Z,14.50
2023-06-17T07:35:33.549Z,17.60
2023-06-17T07:38:00.405Z,17.30
2023-06-17T07:40:27.614Z,16.40
2023-06-17T07:42:54.281Z,17.60
2023-06-17T07:45:21.838Z,13.80
2023-06-17T07:47:50.944Z,14.00
2023-06-17T07:50:17.559Z,16.60
2023-06-17T07:52:46.554Z,13.10
2023-06-17T07:55:13.247Z,14.80
2023-06-17T07:57:42.504Z,13.80
2023-06-17T08:00:10.430Z,12.40
2023-06-17T08:02:40.834Z,15.10
2023-06-17T08:05:11.290Z,13.40
2023-06-17T08:07:38.225Z,12.10
2023-06-17T08:10:09.684Z,10.90
2023-06-17T08:12:37.034Z,13.80
2023-06-17T08:15:04.290Z,14.40
2023-06-17T08:17:32.908Z,13.40
2023-06-17T08:20:39.797Z,14.30
2023-06-17T08:23:14.086Z,9.90
2023-06-17T08:25:49.868Z,11.00
2023-06-17T08:28:19.267Z,9.50
2023-06-17T08:30:52.726Z,10.90
2023-06-17T08:33:19.829Z,12.10
2023-06-17T08:35:50.807Z,13.90
2023-06-17T08:38:20.201Z,10.60
2023-06-17T08:40:49.226Z,11.10
2023-06-17T08:43:20.139Z,13.60
2023-06-17T08:45:54.036Z,9.70
2023-06-17T08:48:20.959Z,9.50
2023-06-17T08:50:50.527Z,10.00
2023-06-17T08:53:27.621Z,10.40
2023-06-17T08:55:54.102Z,12.00
2023-06-17T08:58:27.401Z,11.30
2023-06-17T09:00:58.037Z,11.70
2023-06-17T09:03:26.048Z,15.10
2023-06-17T09:05:53.983Z,9.40
2023-06-17T09:08:21.060Z,10.70
2023-06-17T09:10:47.694Z,9.60
2023-06-17T09:13:16.483Z,8.20
2023-06-17T09:15:44.173Z,8.80
2023-06-17T09:18:10.716Z,7.80
2023-06-17T09:20:39.350Z,9.50
2023-06-17T09:23:18.144Z,8.10
2023-06-17T09:25:45.047Z,6.90
2023-06-17T09:28:16.047Z,6.90
2023-06-17T09:30:53.693Z,7.00
2023-06-17T09:33:24.433Z,6.40
2023-06-17T09:36:09.219Z,7.60
2023-06-17T09:38:39.517Z,8.20
2023-06-17T09:41:14.458Z,6.90
2023-06-17T09:43:42.054Z,6.60
2023-06-17T09:46:11.709Z,7.30
2023-06-17T09:51:12.875Z,6.30
2023-06-17T09:53:41.616Z,10.40
2023-06-17T09:56:11.581Z,6.90
2023-06-17T09:58:42.833Z,6.90
2023-06-17T10:01:11.904Z,7.20
2023-06-17T10:03:40.248Z,5.90
2023-06-17T10:06:19.758Z,6.90
2023-06-17T10:08:51.256Z,7.40
2023-06-17T10:11:24.471Z,9.80
2023-06-17T10:14:06.627Z,8.60
2023-06-17T10:16:36.934Z,7.80
2023-06-17T10:19:08.091Z,7.60
2023-06-17T10:21:38.813Z,6.10
2023-06-17T10:24:09.063Z,6.60
2023-06-17T10:26:41.803Z,5.60
2023-06-17T10:29:12.092Z,6.80
2023-06-17T10:31:43.225Z,6.50
2023-06-17T10:34:22.834Z,5.80
2023-06-17T10:36:58.401Z,10.50
2023-06-17T10:39:27.853Z,6.20
2023-06-17T10:41:59.877Z,6.20
2023-06-17T10:44:28.699Z,6.40
2023-06-17T10:47:18.916Z,5.30
2023-06-17T10:49:52.344Z,6.30
2023-06-17T10:52:19.694Z,10.10
2023-06-17T10:54:55.894Z,5.30
2023-06-17T10:57:36.357Z,9.70
2023-06-17T11:00:14.502Z,6.90
2023-06-17T11:02:41.468Z,5.80
2023-06-17T11:05:10.793Z,5.80
2023-06-17T11:07:40.027Z,5.60
2023-06-17T11:10:07.397Z,6.20
2023-06-17T11:12:39.857Z,5.40
2023-06-17T11:15:07.670Z,5.10
2023-06-17T11:17:34.193Z,4.90
2023-06-17T11:20:03.925Z,6.20
2023-06-17T11:22:30.563Z,5.20
2023-06-17T11:24:59.699Z,5.30
2023-06-17T11:27:29.678Z,5.40
2023-06-17T11:29:56.883Z,6.00
2023-06-17T11:32:29.208Z,10.40
2023-06-17T11:34:58.646Z,7.30
2023-06-17T11:37:27.509Z,9.20
2023-06-17T11:39:56.812Z,5.70
2023-06-17T11:42:25.903Z,6.00
2023-06-17T11:44:54.840Z,6.20
2023-06-17T11:47:32.569Z,8.80
2023-06-17T11:49:59.329Z,8.60
2023-06-17T11:52:25.921Z,6.90
2023-06-17T11:54:55.164Z,9.80
2023-06-17T11:57:27.041Z,9.00
2023-06-17T12:00:04.323Z,6.70
2023-06-17T12:02:38.962Z,6.20
2023-06-17T12:05:05.910Z,5.80
2023-06-17T12:07:47.519Z,7.50
2023-06-17T12:10:17.767Z,4.50
2023-06-17T12:12:46.177Z,9.70
2023-06-17T12:15:17.476Z,5.20
2023-06-17T12:17:48.881Z,12.80
2023-06-17T12:20:19.762Z,4.50
2023-06-17T12:22:49.025Z,28.70
2023-06-17T12:25:15.775Z,34.10
2023-06-17T12:27:47.752Z,11.90
2023-06-17T12:30:14.733Z,12.70
2023-06-17T12:32:42.038Z,7.60
2023-06-17T12:35:12.448Z,17.70
2023-06-17T12:37:41.691Z,63.60
2023-06-17T12:40:09.137Z,42.40
2023-06-17T12:42:36.209Z,22.50
2023-06-17T12:45:04.188Z,18.50
2023-06-17T12:47:37.179Z,14.10
2023-06-17T12:50:10.593Z,12.60
2023-06-17T12:52:37.730Z,6.60
2023-06-17T12:55:05.343Z,8.60
2023-06-17T12:57:34.219Z,6.40
2023-06-17T13:00:05.488Z,8.60
2023-06-17T13:02:37.857Z,5.80
2023-06-17T13:05:07.837Z,5.30
2023-06-17T13:07:36.591Z,4.60
2023-06-17T13:46:25.396Z,4.60
2023-06-17T13:48:54.774Z,4.90
2023-06-17T13:51:24.696Z,8.40
2023-06-17T13:53:54.299Z,6.30
2023-06-17T13:56:21.026Z,10.60
2023-06-17T13:58:50.570Z,6.60
2023-06-17T14:01:20.150Z,4.00
2023-06-17T14:03:48.416Z,4.40
2023-06-17T14:06:15.343Z,11.50
2023-06-17T14:08:42.213Z,7.80
2023-06-17T14:11:09.212Z,9.70
2023-06-17T14:13:35.777Z,7.70
2023-06-17T14:16:07.682Z,11.40
2023-06-17T14:18:37.064Z,5.60
2023-06-17T14:21:03.556Z,8.40
2023-06-17T14:23:34.214Z,7.50
2023-06-17T14:26:00.857Z,10.20
2023-06-17T14:28:27.510Z,7.00
2023-06-17T14:30:56.756Z,8.90
2023-06-17T14:33:23.446Z,8.40
2023-06-17T14:35:49.899Z,6.40
2023-06-17T14:38:16.443Z,8.10
2023-06-17T14:40:45.364Z,6.80
2023-06-17T14:43:12.005Z,7.00
2023-06-17T14:45:40.534Z,8.80
2023-06-17T14:48:09.779Z,9.10
2023-06-17T14:50:41.714Z,11.90
2023-06-17T14:53:08.988Z,8.50
2023-06-17T14:55:40.371Z,7.00
2023-06-17T14:58:09.394Z,8.10
2023-06-17T15:00:36.317Z,8.00
2023-06-17T15:03:09.287Z,5.70
2023-06-17T15:05:38.034Z,7.50
2023-06-17T15:08:09.704Z,7.80
2023-06-17T15:10:36.616Z,4.20
2023-06-17T15:13:05.567Z,4.80
2023-06-17T15:15:37.636Z,4.90
2023-06-17T16:19:40.973Z,5.50
2023-06-17T16:22:10.334Z,4.40
2023-06-17T16:24:37.996Z,6.90
2023-06-17T16:27:04.903Z,9.30
2023-06-17T16:29:36.164Z,5.50
2023-06-17T16:32:02.986Z,6.40
2023-06-17T16:34:29.695Z,4.90
2023-06-17T16:36:59.514Z,9.40
2023-06-17T16:39:29.451Z,5.70
2023-06-17T16:42:07.864Z,7.00
2023-06-17T16:44:38.023Z,4.90
2023-06-17T16:47:05.596Z,8.20
2023-06-17T16:49:32.043Z,5.10
2023-06-17T16:52:02.006Z,8.70
2023-06-17T16:54:28.827Z,4.10
2023-06-17T16:56:55.483Z,9.40
2023-06-17T16:59:23.037Z,5.60
2023-06-17T17:01:49.615Z,8.60
2023-06-17T17:04:16.222Z,35.80
2023-06-17T17:06:46.138Z,11.40
2023-06-17T17:11:44.714Z,13.70
2023-06-17T17:14:11.288Z,9.40
2023-06-17T17:16:40.586Z,8.50
2023-06-17T17:19:07.377Z,8.90
2023-06-17T17:21:37.007Z,11.70
2023-06-17T17:24:06.160Z,8.90
2023-06-17T17:26:37.217Z,12.00
2023-06-17T17:29:06.072Z,10.30
2023-06-17T17:31:35.256Z,8.20
2023-06-17T17:34:01.990Z,8.40
2023-06-17T17:36:28.649Z,9.40
2023-06-17T17:38:57.628Z,11.90
2023-06-17T17:41:25.986Z,9.50
2023-06-17T17:43:52.578Z,9.10
2023-06-17T17:46:21.764Z,10.10
2023-06-17T17:48:48.452Z,10.50
2023-06-17T17:51:17.389Z,8.60
2023-06-17T17:53:43.900Z,12.00
2023-06-17T17:56:12.985Z,9.10
2023-06-17T17:58:39.444Z,9.60
2023-06-17T18:01:05.907Z,9.50
2023-06-17T18:03:32.610Z,9.40
2023-06-17T18:06:01.263Z,10.90
2023-06-17T18:08:27.943Z,9.60
2023-06-17T18:10:56.444Z,9.80
2023-06-17T18:13:27.459Z,9.50
2023-06-17T18:15:54.025Z,13.70
2023-06-17T18:18:21.004Z,10.40
2023-06-17T18:20:48.232Z,10.30
2023-06-17T18:23:17.486Z,13.80
2023-06-17T18:26:29.906Z,10.40
2023-06-17T18:28:58.088Z,9.40
2023-06-17T18:31:25.112Z,17.80
2023-06-17T18:33:54.689Z,12.60
2023-06-17T18:36:21.520Z,9.90
2023-06-17T18:38:57.455Z,10.30
2023-06-17T18:41:24.852Z,10.10
2023-06-17T18:43:54.712Z,16.50
2023-06-17T18:46:21.976Z,11.00
2023-06-17T18:49:00.234Z,9.10
2023-06-17T18:51:27.109Z,14.90
2023-06-17T18:53:53.741Z,12.00
2023-06-17T18:56:22.671Z,12.60
2023-06-17T18:58:55.106Z,10.00
2023-06-17T19:03:48.324Z,8.80
2023-06-17T19:06:14.922Z,8.70
2023-06-17T19:08:41.869Z,8.60
2023-06-17T19:11:18.048Z,10.60
2023-06-17T19:13:49.943Z,11.20
2023-06-17T19:16:19.281Z,8.10
2023-06-17T19:18:46.330Z,8.20
2023-06-17T19:21:13.291Z,8.50
2023-06-17T19:23:40.044Z,8.80
2023-06-17T19:26:11.558Z,8.90
2023-06-17T19:28:38.331Z,7.20
2023-06-17T19:31:05.354Z,9.70
2023-06-17T19:33:37.226Z,7.50
2023-06-17T19:36:04.462Z,7.50
2023-06-17T19:38:32.830Z,8.50
2023-06-17T19:41:00.344Z,5.70
2023-06-17T19:43:33.494Z,6.30
2023-06-17T19:46:01.901Z,4.30
2023-06-17T19:48:29.090Z,4.10
2023-06-17T20:10:08.523Z,4.40
2023-06-17T20:12:36.480Z,6.40
2023-06-17T20:15:06.654Z,7.60
2023-06-17T20:17:33.338Z,4.60
2023-06-17T20:20:03.744Z,6.20
2023-06-17T20:22:30.332Z,5.70
2023-06-17T20:24:56.892Z,5.30
2023-06-17T20:27:25.459Z,8.40
2023-06-17T20:29:54.452Z,5.10
2023-06-17T20:32:26.619Z,4.90
2023-06-17T20:34:58.913Z,5.70
2023-06-17T20:37:31.032Z,7.30
2023-06-17T20:39:59.904Z,7.20
2023-06-17T20:42:26.585Z,10.30
2023-06-17T20:44:53.060Z,6.80
2023-06-17T20:47:22.325Z,5.80
2023-06-17T21:08:32.264Z,7.10
2023-06-17T21:10:59.223Z,6.60
2023-06-17T21:13:25.772Z,5.80
2023-06-17T21:15:55.176Z,6.60
2023-06-17T21:18:25.439Z,6.20
2023-06-17T21:20:52.722Z,4.90
2023-06-17T21:23:19.213Z,5.40
2023-06-17T21:25:46.126Z,5.20
2023-06-17T21:28:12.967Z,5.90
2023-06-17T21:30:46.598Z,5.30
2023-06-17T21:33:14.119Z,5.80
2023-06-17T21:35:43.545Z,5.00
2023-06-17T21:38:11.993Z,5.00
2023-06-17T21:40:40.738Z,7.10
2023-06-17T21:43:09.878Z,4.80
2023-06-17T21:45:38.627Z,4.60
2023-06-17T21:48:05.399Z,4.80
2023-06-17T21:50:34.860Z,4.80
2023-06-17T21:53:01.489Z,4.70
